sensor_id;sensor_type;location;lat;lon;timestamp;pressure;altitude;pressure_sealevel;temperature;humidity
54918;BME280;40818;50.562;7.454;2023-05-07T00:03:42;97724.75;;;11.67;100.00
54918;BME280;40818;50.562;7.454;2023-05-07T00:13:48;97722.19;;;11.54;100.00
54918;BME280;40818;50.562;7.454;2023-05-07T00:23:51;97723.66;;;11.46;100.00
54918;BME280;40818;50.562;7.454;2023-05-07T00:33:57;97732.28;;;11.46;100.00
54918;BME280;40818;50.562;7.454;2023-05-07T00:44:01;97728.72;;;11.60;100.00
54918;BME280;40818;50.562;7.454;2023-05-07T00:54:08;97731.81;;;11.78;100.00
54918;BME280;40818;50.562;7.454;2023-05-07T01:04:11;97720.88;;;11.86;100.00
54918;BME280;40818;50.562;7.454;2023-05-07T01:14:18;97714.59;;;11.88;100.00
54918;BME280;40818;50.562;7.454;2023-05-07T01:24:25;97698.41;;;11.85;100.00
54918;BME280;40818;50.562;7.454;2023-05-07T01:34:31;97697.19;;;11.77;100.00
54918;BME280;40818;50.562;7.454;2023-05-07T01:44:38;97688.94;;;11.84;100.00
54918;BME280;40818;50.562;7.454;2023-05-07T01:54:42;97697.69;;;11.95;100.00
54918;BME280;40818;50.562;7.454;2023-05-07T02:04:48;97705.19;;;12.11;100.00
54918;BME280;40818;50.562;7.454;2023-05-07T02:14:52;97712.53;;;12.18;100.00
54918;BME280;40818;50.562;7.454;2023-05-07T02:24:58;97702.53;;;12.24;100.00
54918;BME280;40818;50.562;7.454;2023-05-07T02:35:02;97701.25;;;12.30;100.00
54918;BME280;40818;50.562;7.454;2023-05-07T02:45:09;97699.44;;;12.19;100.00
54918;BME280;40818;50.562;7.454;2023-05-07T02:55:13;97697.41;;;12.11;100.00
54918;BME280;40818;50.562;7.454;2023-05-07T03:05:20;97692.81;;;12.15;100.00
54918;BME280;40818;50.562;7.454;2023-05-07T03:15:23;97682.41;;;12.15;100.00
54918;BME280;40818;50.562;7.454;2023-05-07T03:25:30;97680.72;;;12.14;100.00
54918;BME280;40818;50.562;7.454;2023-05-07T03:35:34;97681.78;;;12.11;100.00
54918;BME280;40818;50.562;7.454;2023-05-07T03:45:40;97677.03;;;12.05;100.00
54918;BME280;40818;50.562;7.454;2023-05-07T03:56:03;97685.50;;;11.83;100.00
54918;BME280;40818;50.562;7.454;2023-05-07T04:06:15;97683.63;;;11.85;100.00
54918;BME280;40818;50.562;7.454;2023-05-07T04:16:21;97693.41;;;11.94;100.00
54918;BME280;40818;50.562;7.454;2023-05-07T04:26:27;97696.41;;;11.88;100.00
54918;BME280;40818;50.562;7.454;2023-05-07T04:36:32;97708.72;;;12.10;100.00
54918;BME280;40818;50.562;7.454;2023-05-07T04:46:42;97700.94;;;12.35;100.00
54918;BME280;40818;50.562;7.454;2023-05-07T04:56:45;97707.56;;;12.39;100.00
54918;BME280;40818;50.562;7.454;2023-05-07T05:06:52;97707.63;;;12.50;100.00
54918;BME280;40818;50.562;7.454;2023-05-07T05:16:55;97722.97;;;12.42;100.00
54918;BME280;40818;50.562;7.454;2023-05-07T05:27:01;97726.53;;;12.17;100.00
54918;BME280;40818;50.562;7.454;2023-05-07T05:37:06;97720.31;;;12.31;100.00
54918;BME280;40818;50.562;7.454;2023-05-07T05:47:13;97724.06;;;12.51;100.00
54918;BME280;40818;50.562;7.454;2023-05-07T05:57:17;97729.28;;;12.86;100.00
54918;BME280;40818;50.562;7.454;2023-05-07T06:07:23;97726.75;;;13.43;100.00
54918;BME280;40818;50.562;7.454;2023-05-07T06:17:27;97730.03;;;13.79;100.00
54918;BME280;40818;50.562;7.454;2023-05-07T06:27:34;97725.09;;;14.52;100.00
54918;BME280;40818;50.562;7.454;2023-05-07T06:37:40;97731.59;;;14.69;100.00
54918;BME280;40818;50.562;7.454;2023-05-07T06:47:54;97750.16;;;14.87;100.00
54918;BME280;40818;50.562;7.454;2023-05-07T06:57:59;97750.28;;;15.38;100.00
54918;BME280;40818;50.562;7.454;2023-05-07T07:08:06;97747.13;;;16.06;100.00
54918;BME280;40818;50.562;7.454;2023-05-07T07:18:09;97744.25;;;15.78;100.00
54918;BME280;40818;50.562;7.454;2023-05-07T07:28:17;97750.50;;;15.25;100.00
54918;BME280;40818;50.562;7.454;2023-05-07T07:38:23;97753.84;;;15.58;100.00
54918;BME280;40818;50.562;7.454;2023-05-07T07:48:29;97751.44;;;16.26;100.00
54918;BME280;40818;50.562;7.454;2023-05-07T07:58:33;97762.38;;;16.70;100.00
54918;BME280;40818;50.562;7.454;2023-05-07T08:08:41;97773.38;;;17.03;100.00
54918;BME280;40818;50.562;7.454;2023-05-07T08:18:44;97769.34;;;17.38;95.24
54918;BME280;40818;50.562;7.454;2023-05-07T08:28:51;97774.59;;;17.38;96.33
54918;BME280;40818;50.562;7.454;2023-05-07T08:38:54;97771.09;;;18.13;92.63
54918;BME280;40818;50.562;7.454;2023-05-07T08:49:00;97774.22;;;18.45;90.41
54918;BME280;40818;50.562;7.454;2023-05-07T08:59:05;97780.78;;;19.39;88.44
54918;BME280;40818;50.562;7.454;2023-05-07T09:09:14;97779.06;;;19.30;84.16
54918;BME280;40818;50.562;7.454;2023-05-07T09:19:22;97775.00;;;19.96;85.05
54918;BME280;40818;50.562;7.454;2023-05-07T09:29:30;97770.25;;;20.92;76.21
54918;BME280;40818;50.562;7.454;2023-05-07T09:39:40;97751.84;;;22.36;64.58
54918;BME280;40818;50.562;7.454;2023-05-07T09:49:48;97759.44;;;23.23;60.56
54918;BME280;40818;50.562;7.454;2023-05-07T09:59:56;97762.63;;;23.18;57.67
54918;BME280;40818;50.562;7.454;2023-05-07T10:10:05;97756.78;;;23.38;57.71
54918;BME280;40818;50.562;7.454;2023-05-07T10:20:14;97758.06;;;23.12;58.58
54918;BME280;40818;50.562;7.454;2023-05-07T10:30:28;97740.53;;;23.71;57.68
54918;BME280;40818;50.562;7.454;2023-05-07T10:40:35;97759.94;;;23.57;54.34
54918;BME280;40818;50.562;7.454;2023-05-07T10:50:44;97757.84;;;24.33;57.28
54918;BME280;40818;50.562;7.454;2023-05-07T11:00:49;97750.19;;;25.10;54.65
54918;BME280;40818;50.562;7.454;2023-05-07T11:11:02;97739.28;;;22.61;51.88
54918;BME280;40818;50.562;7.454;2023-05-07T11:21:12;97743.00;;;21.80;56.10
54918;BME280;40818;50.562;7.454;2023-05-07T11:31:27;97755.22;;;20.92;59.93
54918;BME280;40818;50.562;7.454;2023-05-07T11:41:34;97751.97;;;20.15;59.12
54918;BME280;40818;50.562;7.454;2023-05-07T11:51:40;97747.78;;;19.87;61.12
54918;BME280;40818;50.562;7.454;2023-05-07T12:01:46;97753.50;;;20.25;73.71
54918;BME280;40818;50.562;7.454;2023-05-07T12:11:54;97755.00;;;20.44;65.45
54918;BME280;40818;50.562;7.454;2023-05-07T12:21:57;97749.09;;;20.59;65.29
54918;BME280;40818;50.562;7.454;2023-05-07T12:32:04;97751.38;;;20.37;65.20
54918;BME280;40818;50.562;7.454;2023-05-07T12:42:07;97762.16;;;20.77;65.40
54918;BME280;40818;50.562;7.454;2023-05-07T12:52:13;97751.28;;;20.88;71.59
54918;BME280;40818;50.562;7.454;2023-05-07T13:02:17;97762.28;;;20.67;72.16
54918;BME280;40818;50.562;7.454;2023-05-07T13:12:23;97742.03;;;20.76;65.00
54918;BME280;40818;50.562;7.454;2023-05-07T13:22:26;97746.28;;;20.44;64.99
54918;BME280;40818;50.562;7.454;2023-05-07T13:32:34;97741.13;;;20.18;70.72
54918;BME280;40818;50.562;7.454;2023-05-07T13:42:40;97766.88;;;19.28;82.58
54918;BME280;40818;50.562;7.454;2023-05-07T13:52:46;97755.97;;;18.61;94.78
54918;BME280;40818;50.562;7.454;2023-05-07T14:02:51;97737.69;;;17.78;100.00
54918;BME280;40818;50.562;7.454;2023-05-07T14:12:57;97743.06;;;16.91;100.00
54918;BME280;40818;50.562;7.454;2023-05-07T14:23:00;97742.78;;;16.55;100.00
54918;BME280;40818;50.562;7.454;2023-05-07T14:33:36;97748.69;;;16.57;100.00
54918;BME280;40818;50.562;7.454;2023-05-07T14:43:39;97753.53;;;17.01;100.00
54918;BME280;40818;50.562;7.454;2023-05-07T14:53:45;97756.56;;;17.53;100.00
54918;BME280;40818;50.562;7.454;2023-05-07T15:03:49;97755.81;;;17.71;100.00
54918;BME280;40818;50.562;7.454;2023-05-07T15:13:55;97749.41;;;17.46;100.00
54918;BME280;40818;50.562;7.454;2023-05-07T15:23:58;97757.66;;;17.13;100.00
54918;BME280;40818;50.562;7.454;2023-05-07T15:34:04;97760.25;;;17.23;100.00
54918;BME280;40818;50.562;7.454;2023-05-07T15:54:56;97796.84;;;17.25;100.00
54918;BME280;40818;50.562;7.454;2023-05-07T16:05:00;97806.66;;;17.13;100.00
54918;BME280;40818;50.562;7.454;2023-05-07T16:15:07;97813.41;;;16.66;100.00
54918;BME280;40818;50.562;7.454;2023-05-07T16:25:10;97811.97;;;16.23;100.00
54918;BME280;40818;50.562;7.454;2023-05-07T16:35:17;97813.47;;;15.85;100.00
54918;BME280;40818;50.562;7.454;2023-05-07T16:45:20;97818.16;;;15.60;100.00
54918;BME280;40818;50.562;7.454;2023-05-07T16:55:26;97834.78;;;15.49;100.00
54918;BME280;40818;50.562;7.454;2023-05-07T17:05:33;97836.22;;;15.63;100.00
54918;BME280;40818;50.562;7.454;2023-05-07T17:15:40;97845.16;;;15.61;100.00
54918;BME280;40818;50.562;7.454;2023-05-07T17:25:45;97859.06;;;15.61;100.00
54918;BME280;40818;50.562;7.454;2023-05-07T17:35:51;97892.66;;;15.56;100.00
54918;BME280;40818;50.562;7.454;2023-05-07T17:45:55;97911.00;;;15.45;100.00
54918;BME280;40818;50.562;7.454;2023-05-07T17:56:01;97906.41;;;15.16;100.00
54918;BME280;40818;50.562;7.454;2023-05-07T18:06:07;97921.53;;;15.01;100.00
54918;BME280;40818;50.562;7.454;2023-05-07T18:16:13;97942.13;;;14.83;100.00
54918;BME280;40818;50.562;7.454;2023-05-07T18:26:17;97968.00;;;14.86;100.00
54918;BME280;40818;50.562;7.454;2023-05-07T18:36:23;97992.28;;;14.77;100.00
54918;BME280;40818;50.562;7.454;2023-05-07T18:46:27;98023.63;;;14.65;100.00
54918;BME280;40818;50.562;7.454;2023-05-07T18:56:33;98022.03;;;14.51;100.00
54918;BME280;40818;50.562;7.454;2023-05-07T19:06:37;98011.94;;;14.36;100.00
54918;BME280;40818;50.562;7.454;2023-05-07T19:16:43;98030.72;;;14.29;100.00
54918;BME280;40818;50.562;7.454;2023-05-07T19:26:46;98036.25;;;14.13;100.00
54918;BME280;40818;50.562;7.454;2023-05-07T19:36:52;98037.94;;;13.90;100.00
54918;BME280;40818;50.562;7.454;2023-05-07T19:46:57;98053.84;;;13.87;100.00
54918;BME280;40818;50.562;7.454;2023-05-07T19:57:04;98056.03;;;13.69;100.00
54918;BME280;40818;50.562;7.454;2023-05-07T20:07:07;98065.13;;;13.39;100.00
54918;BME280;40818;50.562;7.454;2023-05-07T20:17:13;98069.88;;;13.21;100.00
54918;BME280;40818;50.562;7.454;2023-05-07T20:27:17;98068.22;;;13.07;100.00
54918;BME280;40818;50.562;7.454;2023-05-07T20:37:26;98081.19;;;12.83;100.00
54918;BME280;40818;50.562;7.454;2023-05-07T20:47:30;98081.09;;;12.72;100.00
54918;BME280;40818;50.562;7.454;2023-05-07T20:57:36;98066.91;;;12.76;100.00
54918;BME280;40818;50.562;7.454;2023-05-07T21:07:40;98071.81;;;12.55;100.00
54918;BME280;40818;50.562;7.454;2023-05-07T21:17:46;98061.84;;;12.61;100.00
54918;BME280;40818;50.562;7.454;2023-05-07T21:27:49;98066.72;;;12.66;100.00
54918;BME280;40818;50.562;7.454;2023-05-07T21:37:55;98072.34;;;12.60;100.00
54918;BME280;40818;50.562;7.454;2023-05-07T21:48:00;98076.94;;;12.56;100.00
54918;BME280;40818;50.562;7.454;2023-05-07T21:58:06;98064.84;;;12.55;100.00
54918;BME280;40818;50.562;7.454;2023-05-07T22:08:09;98072.97;;;12.51;100.00
54918;BME280;40818;50.562;7.454;2023-05-07T22:18:15;98066.53;;;12.43;100.00
54918;BME280;40818;50.562;7.454;2023-05-07T22:28:18;98054.75;;;12.51;100.00
54918;BME280;40818;50.562;7.454;2023-05-07T22:38:24;98055.28;;;12.56;100.00
54918;BME280;40818;50.562;7.454;2023-05-07T22:48:34;98057.47;;;12.49;100.00
54918;BME280;40818;50.562;7.454;2023-05-07T22:58:42;98055.91;;;12.34;100.00
54918;BME280;40818;50.562;7.454;2023-05-07T23:08:46;98066.09;;;12.37;100.00
54918;BME280;40818;50.562;7.454;2023-05-07T23:18:52;98073.69;;;12.40;100.00
54918;BME280;40818;50.562;7.454;2023-05-07T23:28:55;98077.97;;;12.41;100.00
54918;BME280;40818;50.562;7.454;2023-05-07T23:39:01;98087.56;;;12.53;100.00
54918;BME280;40818;50.562;7.454;2023-05-07T23:49:04;98086.72;;;12.66;100.00
54918;BME280;40818;50.562;7.454;2023-05-07T23:59:10;98080.06;;;12.61;100.00
